sensor_id;sensor_type;location;lat;lon;timestamp;P1;durP1;ratioP1;P2;durP2;ratioP2
16025;SDS011;8117;52.488;13.460;2022-10-26T00:02:23;5.57;;;2.77;;
16025;SDS011;8117;52.488;13.460;2022-10-26T00:04:52;3.23;;;2.30;;
16025;SDS011;8117;52.488;13.460;2022-10-26T00:07:22;3.97;;;2.00;;
16025;SDS011;8117;52.488;13.460;2022-10-26T00:09:51;4.53;;;2.93;;
16025;SDS011;8117;52.488;13.460;2022-10-26T00:12:23;3.93;;;2.30;;
16025;SDS011;8117;52.488;13.460;2022-10-26T00:14:52;2.40;;;1.87;;
16025;SDS011;8117;52.488;13.460;2022-10-26T00:17:21;2.50;;;2.00;;
16025;SDS011;8117;52.488;13.460;2022-10-26T00:19:56;4.37;;;2.37;;
16025;SDS011;8117;52.488;13.460;2022-10-26T00:22:24;6.63;;;2.97;;
16025;SDS011;8117;52.488;13.460;2022-10-26T00:24:53;4.97;;;2.87;;
16025;SDS011;8117;52.488;13.460;2022-10-26T00:27:23;2.77;;;2.00;;
16025;SDS011;8117;52.488;13.460;2022-10-26T00:29:55;2.27;;;2.07;;
16025;SDS011;8117;52.488;13.460;2022-10-26T00:32:23;6.63;;;1.83;;
16025;SDS011;8117;52.488;13.460;2022-10-26T00:34:58;2.97;;;2.40;;
16025;SDS011;8117;52.488;13.460;2022-10-26T00:37:25;3.57;;;1.60;;
16025;SDS011;8117;52.488;13.460;2022-10-26T00:40:01;4.03;;;1.57;;
16025;SDS011;8117;52.488;13.460;2022-10-26T00:42:42;2.17;;;1.63;;
16025;SDS011;8117;52.488;13.460;2022-10-26T00:48:32;4.30;;;2.50;;
16025;SDS011;8117;52.488;13.460;2022-10-26T00:51:19;2.93;;;2.03;;
16025;SDS011;8117;52.488;13.460;2022-10-26T00:53:59;3.07;;;1.97;;
16025;SDS011;8117;52.488;13.460;2022-10-26T00:56:32;6.30;;;2.30;;
16025;SDS011;8117;52.488;13.460;2022-10-26T00:59:07;3.47;;;2.10;;
16025;SDS011;8117;52.488;13.460;2022-10-26T01:01:39;5.43;;;1.70;;
16025;SDS011;8117;52.488;13.460;2022-10-26T01:04:12;3.63;;;1.87;;
16025;SDS011;8117;52.488;13.460;2022-10-26T01:06:40;2.93;;;2.37;;
16025;SDS011;8117;52.488;13.460;2022-10-26T01:09:07;6.73;;;2.53;;
16025;SDS011;8117;52.488;13.460;2022-10-26T01:11:39;3.97;;;1.97;;
16025;SDS011;8117;52.488;13.460;2022-10-26T01:14:19;3.43;;;1.80;;
16025;SDS011;8117;52.488;13.460;2022-10-26T01:16:53;2.60;;;1.47;;
16025;SDS011;8117;52.488;13.460;2022-10-26T01:19:32;4.33;;;2.37;;
16025;SDS011;8117;52.488;13.460;2022-10-26T01:22:21;1.90;;;1.50;;
16025;SDS011;8117;52.488;13.460;2022-10-26T01:24:57;2.37;;;2.17;;
16025;SDS011;8117;52.488;13.460;2022-10-26T01:27:29;4.67;;;1.90;;
16025;SDS011;8117;52.488;13.460;2022-10-26T01:30:28;2.23;;;1.63;;
16025;SDS011;8117;52.488;13.460;2022-10-26T01:33:50;3.07;;;1.93;;
16025;SDS011;8117;52.488;13.460;2022-10-26T01:36:25;3.07;;;1.87;;
16025;SDS011;8117;52.488;13.460;2022-10-26T01:39:03;3.80;;;1.90;;
16025;SDS011;8117;52.488;13.460;2022-10-26T01:41:41;3.23;;;2.50;;
16025;SDS011;8117;52.488;13.460;2022-10-26T01:44:12;3.30;;;2.10;;
16025;SDS011;8117;52.488;13.460;2022-10-26T01:47:02;2.57;;;1.93;;
16025;SDS011;8117;52.488;13.460;2022-10-26T01:49:58;4.23;;;2.07;;
16025;SDS011;8117;52.488;13.460;2022-10-26T01:52:28;2.70;;;2.07;;
16025;SDS011;8117;52.488;13.460;2022-10-26T01:58:46;3.00;;;1.50;;
16025;SDS011;8117;52.488;13.460;2022-10-26T02:08:24;2.80;;;1.70;;
16025;SDS011;8117;52.488;13.460;2022-10-26T02:10:55;3.10;;;1.37;;
16025;SDS011;8117;52.488;13.460;2022-10-26T02:13:28;2.03;;;1.47;;
16025;SDS011;8117;52.488;13.460;2022-10-26T02:16:09;1.90;;;1.53;;
16025;SDS011;8117;52.488;13.460;2022-10-26T02:18:45;5.17;;;1.87;;
16025;SDS011;8117;52.488;13.460;2022-10-26T02:21:19;1.97;;;1.47;;
16025;SDS011;8117;52.488;13.460;2022-10-26T02:23:48;3.90;;;2.37;;
16025;SDS011;8117;52.488;13.460;2022-10-26T02:26:20;3.20;;;1.80;;
16025;SDS011;8117;52.488;13.460;2022-10-26T02:28:48;2.90;;;2.00;;
16025;SDS011;8117;52.488;13.460;2022-10-26T02:31:36;2.93;;;2.17;;
16025;SDS011;8117;52.488;13.460;2022-10-26T02:34:09;3.80;;;1.43;;
16025;SDS011;8117;52.488;13.460;2022-10-26T02:40:40;3.20;;;1.67;;
16025;SDS011;8117;52.488;13.460;2022-10-26T02:43:09;4.13;;;2.57;;
16025;SDS011;8117;52.488;13.460;2022-10-26T02:45:50;3.63;;;2.60;;
16025;SDS011;8117;52.488;13.460;2022-10-26T02:52:01;2.77;;;2.17;;
16025;SDS011;8117;52.488;13.460;2022-10-26T02:54:55;3.17;;;2.23;;
16025;SDS011;8117;52.488;13.460;2022-10-26T03:00:53;3.40;;;2.23;;
16025;SDS011;8117;52.488;13.460;2022-10-26T03:03:23;4.47;;;2.40;;
16025;SDS011;8117;52.488;13.460;2022-10-26T03:06:01;7.40;;;2.53;;
16025;SDS011;8117;52.488;13.460;2022-10-26T03:08:36;5.80;;;2.47;;
16025;SDS011;8117;52.488;13.460;2022-10-26T03:11:17;3.70;;;2.50;;
16025;SDS011;8117;52.488;13.460;2022-10-26T03:13:47;3.47;;;1.80;;
16025;SDS011;8117;52.488;13.460;2022-10-26T03:16:20;3.17;;;1.70;;
16025;SDS011;8117;52.488;13.460;2022-10-26T03:18:48;4.70;;;2.50;;
16025;SDS011;8117;52.488;13.460;2022-10-26T03:21:15;5.60;;;3.00;;
16025;SDS011;8117;52.488;13.460;2022-10-26T03:23:43;3.03;;;2.10;;
16025;SDS011;8117;52.488;13.460;2022-10-26T03:26:12;6.37;;;2.27;;
16025;SDS011;8117;52.488;13.460;2022-10-26T03:28:38;5.07;;;2.83;;
16025;SDS011;8117;52.488;13.460;2022-10-26T03:31:05;5.87;;;3.00;;
16025;SDS011;8117;52.488;13.460;2022-10-26T03:33:42;4.13;;;2.03;;
16025;SDS011;8117;52.488;13.460;2022-10-26T03:36:11;5.17;;;2.60;;
16025;SDS011;8117;52.488;13.460;2022-10-26T03:38:38;4.57;;;2.27;;
16025;SDS011;8117;52.488;13.460;2022-10-26T03:41:07;2.63;;;1.73;;
16025;SDS011;8117;52.488;13.460;2022-10-26T03:43:35;3.93;;;1.90;;
16025;SDS011;8117;52.488;13.460;2022-10-26T03:46:02;5.13;;;3.00;;
16025;SDS011;8117;52.488;13.460;2022-10-26T03:48:31;3.50;;;2.13;;
16025;SDS011;8117;52.488;13.460;2022-10-26T03:50:58;2.20;;;1.83;;
16025;SDS011;8117;52.488;13.460;2022-10-26T03:53:25;2.33;;;1.57;;
16025;SDS011;8117;52.488;13.460;2022-10-26T03:55:55;3.70;;;2.63;;
16025;SDS011;8117;52.488;13.460;2022-10-26T03:58:23;2.97;;;1.77;;
16025;SDS011;8117;52.488;13.460;2022-10-26T04:00:50;3.03;;;2.20;;
16025;SDS011;8117;52.488;13.460;2022-10-26T04:03:19;3.37;;;2.03;;
16025;SDS011;8117;52.488;13.460;2022-10-26T04:05:50;2.70;;;1.60;;
16025;SDS011;8117;52.488;13.460;2022-10-26T04:08:19;2.97;;;2.17;;
16025;SDS011;8117;52.488;13.460;2022-10-26T04:10:48;1.60;;;1.50;;
16025;SDS011;8117;52.488;13.460;2022-10-26T04:13:15;2.67;;;1.50;;
16025;SDS011;8117;52.488;13.460;2022-10-26T04:15:48;2.77;;;1.80;;
16025;SDS011;8117;52.488;13.460;2022-10-26T04:18:19;2.63;;;1.60;;
16025;SDS011;8117;52.488;13.460;2022-10-26T04:20:49;2.07;;;1.80;;
16025;SDS011;8117;52.488;13.460;2022-10-26T04:23:20;2.03;;;1.83;;
16025;SDS011;8117;52.488;13.460;2022-10-26T04:25:50;3.70;;;1.93;;
16025;SDS011;8117;52.488;13.460;2022-10-26T04:28:21;2.77;;;1.57;;
16025;SDS011;8117;52.488;13.460;2022-10-26T04:30:50;2.27;;;1.33;;
16025;SDS011;8117;52.488;13.460;2022-10-26T04:33:19;2.17;;;1.23;;
16025;SDS011;8117;52.488;13.460;2022-10-26T04:35:46;2.23;;;1.43;;
16025;SDS011;8117;52.488;13.460;2022-10-26T04:38:17;3.47;;;2.10;;
16025;SDS011;8117;52.488;13.460;2022-10-26T04:40:56;1.70;;;1.43;;
16025;SDS011;8117;52.488;13.460;2022-10-26T04:43:23;3.27;;;2.50;;
16025;SDS011;8117;52.488;13.460;2022-10-26T04:45:57;7.03;;;2.20;;
16025;SDS011;8117;52.488;13.460;2022-10-26T04:48:24;3.80;;;1.47;;
16025;SDS011;8117;52.488;13.460;2022-10-26T04:50:57;5.93;;;2.17;;
16025;SDS011;8117;52.488;13.460;2022-10-26T04:53:27;2.80;;;2.23;;
16025;SDS011;8117;52.488;13.460;2022-10-26T04:55:56;3.23;;;1.87;;
16025;SDS011;8117;52.488;13.460;2022-10-26T04:58:25;1.67;;;1.40;;
16025;SDS011;8117;52.488;13.460;2022-10-26T05:00:56;2.03;;;1.43;;
16025;SDS011;8117;52.488;13.460;2022-10-26T05:03:38;2.67;;;1.60;;
16025;SDS011;8117;52.488;13.460;2022-10-26T05:06:11;5.07;;;1.70;;
16025;SDS011;8117;52.488;13.460;2022-10-26T05:08:37;2.57;;;1.17;;
16025;SDS011;8117;52.488;13.460;2022-10-26T05:11:12;2.03;;;1.10;;
16025;SDS011;8117;52.488;13.460;2022-10-26T05:13:41;3.17;;;1.47;;
16025;SDS011;8117;52.488;13.460;2022-10-26T05:19:35;2.40;;;1.73;;
16025;SDS011;8117;52.488;13.460;2022-10-26T05:22:17;2.10;;;1.37;;
16025;SDS011;8117;52.488;13.460;2022-10-26T05:24:43;4.03;;;1.30;;
16025;SDS011;8117;52.488;13.460;2022-10-26T05:27:10;1.50;;;1.30;;
16025;SDS011;8117;52.488;13.460;2022-10-26T05:29:36;2.83;;;1.90;;
16025;SDS011;8117;52.488;13.460;2022-10-26T05:32:08;2.60;;;1.20;;
16025;SDS011;8117;52.488;13.460;2022-10-26T05:34:35;1.50;;;1.40;;
16025;SDS011;8117;52.488;13.460;2022-10-26T05:37:11;1.27;;;1.17;;
16025;SDS011;8117;52.488;13.460;2022-10-26T05:40:57;1.80;;;1.17;;
16025;SDS011;8117;52.488;13.460;2022-10-26T05:42:49;1.90;;;1.57;;
16025;SDS011;8117;52.488;13.460;2022-10-26T05:45:15;1.90;;;1.23;;
16025;SDS011;8117;52.488;13.460;2022-10-26T05:47:44;2.77;;;1.27;;
16025;SDS011;8117;52.488;13.460;2022-10-26T05:50:23;2.67;;;1.00;;
16025;SDS011;8117;52.488;13.460;2022-10-26T05:52:50;1.37;;;1.17;;
16025;SDS011;8117;52.488;13.460;2022-10-26T05:55:17;2.40;;;1.10;;
16025;SDS011;8117;52.488;13.460;2022-10-26T05:57:47;3.37;;;1.90;;
16025;SDS011;8117;52.488;13.460;2022-10-26T06:00:15;2.83;;;1.67;;
16025;SDS011;8117;52.488;13.460;2022-10-26T06:02:48;3.50;;;2.30;;
16025;SDS011;8117;52.488;13.460;2022-10-26T06:05:22;2.53;;;1.67;;
16025;SDS011;8117;52.488;13.460;2022-10-26T06:07:51;1.97;;;1.53;;
16025;SDS011;8117;52.488;13.460;2022-10-26T06:10:18;3.57;;;1.57;;
16025;SDS011;8117;52.488;13.460;2022-10-26T06:12:46;2.53;;;1.73;;
16025;SDS011;8117;52.488;13.460;2022-10-26T06:15:28;2.43;;;1.60;;
16025;SDS011;8117;52.488;13.460;2022-10-26T06:18:01;1.50;;;1.27;;
16025;SDS011;8117;52.488;13.460;2022-10-26T06:20:36;5.90;;;2.47;;
16025;SDS011;8117;52.488;13.460;2022-10-26T06:23:14;3.70;;;1.80;;
16025;SDS011;8117;52.488;13.460;2022-10-26T06:25:47;3.57;;;2.07;;
16025;SDS011;8117;52.488;13.460;2022-10-26T06:28:25;2.50;;;1.60;;
16025;SDS011;8117;52.488;13.460;2022-10-26T06:31:05;3.83;;;1.50;;
16025;SDS011;8117;52.488;13.460;2022-10-26T06:33:44;4.90;;;2.13;;
16025;SDS011;8117;52.488;13.460;2022-10-26T06:36:28;1.57;;;1.00;;
16025;SDS011;8117;52.488;13.460;2022-10-26T06:38:59;1.97;;;1.83;;
16025;SDS011;8117;52.488;13.460;2022-10-26T06:41:27;2.83;;;1.97;;
16025;SDS011;8117;52.488;13.460;2022-10-26T06:43:58;2.73;;;1.93;;
16025;SDS011;8117;52.488;13.460;2022-10-26T06:46:31;1.67;;;1.50;;
16025;SDS011;8117;52.488;13.460;2022-10-26T06:49:09;2.10;;;1.17;;
16025;SDS011;8117;52.488;13.460;2022-10-26T06:51:42;4.70;;;2.80;;
16025;SDS011;8117;52.488;13.460;2022-10-26T06:54:14;3.10;;;1.67;;
16025;SDS011;8117;52.488;13.460;2022-10-26T06:56:45;3.87;;;1.63;;
16025;SDS011;8117;52.488;13.460;2022-10-26T06:59:13;2.67;;;2.17;;
16025;SDS011;8117;52.488;13.460;2022-10-26T07:01:41;2.23;;;1.57;;
16025;SDS011;8117;52.488;13.460;2022-10-26T07:04:09;1.73;;;1.40;;
16025;SDS011;8117;52.488;13.460;2022-10-26T07:06:36;2.60;;;1.70;;
16025;SDS011;8117;52.488;13.460;2022-10-26T07:09:02;2.43;;;2.23;;
16025;SDS011;8117;52.488;13.460;2022-10-26T07:11:50;3.33;;;2.00;;
16025;SDS011;8117;52.488;13.460;2022-10-26T07:14:17;3.47;;;2.17;;
16025;SDS011;8117;52.488;13.460;2022-10-26T07:16:45;4.20;;;2.20;;
16025;SDS011;8117;52.488;13.460;2022-10-26T07:19:13;5.13;;;2.20;;
16025;SDS011;8117;52.488;13.460;2022-10-26T07:21:42;3.73;;;1.97;;
16025;SDS011;8117;52.488;13.460;2022-10-26T07:24:09;1.60;;;1.27;;
16025;SDS011;8117;52.488;13.460;2022-10-26T07:26:36;2.50;;;1.97;;
16025;SDS011;8117;52.488;13.460;2022-10-26T07:29:02;2.23;;;1.67;;
16025;SDS011;8117;52.488;13.460;2022-10-26T07:31:29;2.30;;;2.10;;
16025;SDS011;8117;52.488;13.460;2022-10-26T07:33:59;1.70;;;1.40;;
16025;SDS011;8117;52.488;13.460;2022-10-26T07:36:29;3.00;;;1.53;;
16025;SDS011;8117;52.488;13.460;2022-10-26T07:38:55;3.13;;;1.63;;
16025;SDS011;8117;52.488;13.460;2022-10-26T07:41:22;3.53;;;2.40;;
16025;SDS011;8117;52.488;13.460;2022-10-26T07:43:49;4.10;;;1.77;;
16025;SDS011;8117;52.488;13.460;2022-10-26T07:46:15;2.60;;;2.00;;
16025;SDS011;8117;52.488;13.460;2022-10-26T07:48:44;2.57;;;2.33;;
16025;SDS011;8117;52.488;13.460;2022-10-26T07:51:11;2.73;;;2.03;;
16025;SDS011;8117;52.488;13.460;2022-10-26T07:53:39;3.37;;;1.93;;
16025;SDS011;8117;52.488;13.460;2022-10-26T07:56:09;4.43;;;2.53;;
16025;SDS011;8117;52.488;13.460;2022-10-26T07:58:36;3.13;;;2.50;;
16025;SDS011;8117;52.488;13.460;2022-10-26T08:01:05;5.77;;;2.50;;
16025;SDS011;8117;52.488;13.460;2022-10-26T08:03:33;4.50;;;2.40;;
16025;SDS011;8117;52.488;13.460;2022-10-26T08:06:00;6.03;;;2.30;;
16025;SDS011;8117;52.488;13.460;2022-10-26T08:08:28;3.17;;;2.03;;
16025;SDS011;8117;52.488;13.460;2022-10-26T08:10:57;5.60;;;2.20;;
16025;SDS011;8117;52.488;13.460;2022-10-26T08:13:24;3.83;;;2.27;;
16025;SDS011;8117;52.488;13.460;2022-10-26T08:15:55;3.03;;;2.20;;
16025;SDS011;8117;52.488;13.460;2022-10-26T08:18:27;3.53;;;2.50;;
16025;SDS011;8117;52.488;13.460;2022-10-26T08:21:00;10.87;;;2.57;;
16025;SDS011;8117;52.488;13.460;2022-10-26T08:23:36;3.53;;;1.90;;
16025;SDS011;8117;52.488;13.460;2022-10-26T08:26:20;6.33;;;2.27;;
16025;SDS011;8117;52.488;13.460;2022-10-26T08:29:00;2.70;;;2.00;;
16025;SDS011;8117;52.488;13.460;2022-10-26T08:31:27;2.17;;;1.77;;
16025;SDS011;8117;52.488;13.460;2022-10-26T08:33:54;13.07;;;2.53;;
16025;SDS011;8117;52.488;13.460;2022-10-26T08:36:24;5.20;;;2.80;;
16025;SDS011;8117;52.488;13.460;2022-10-26T08:38:51;3.70;;;1.90;;
16025;SDS011;8117;52.488;13.460;2022-10-26T08:41:35;11.40;;;2.40;;
16025;SDS011;8117;52.488;13.460;2022-10-26T08:44:22;4.43;;;2.57;;
16025;SDS011;8117;52.488;13.460;2022-10-26T08:46:54;5.90;;;2.67;;
16025;SDS011;8117;52.488;13.460;2022-10-26T08:49:30;3.30;;;2.07;;
16025;SDS011;8117;52.488;13.460;2022-10-26T08:52:02;3.67;;;2.63;;
16025;SDS011;8117;52.488;13.460;2022-10-26T08:54:32;3.43;;;2.20;;
16025;SDS011;8117;52.488;13.460;2022-10-26T08:57:03;3.13;;;2.07;;
16025;SDS011;8117;52.488;13.460;2022-10-26T08:59:46;4.67;;;2.07;;
16025;SDS011;8117;52.488;13.460;2022-10-26T09:02:16;4.93;;;2.43;;
16025;SDS011;8117;52.488;13.460;2022-10-26T09:04:43;4.50;;;2.53;;
16025;SDS011;8117;52.488;13.460;2022-10-26T09:07:11;4.97;;;2.40;;
16025;SDS011;8117;52.488;13.460;2022-10-26T09:09:47;5.30;;;2.87;;
16025;SDS011;8117;52.488;13.460;2022-10-26T09:12:22;5.20;;;2.77;;
16025;SDS011;8117;52.488;13.460;2022-10-26T09:14:56;2.97;;;2.77;;
16025;SDS011;8117;52.488;13.460;2022-10-26T09:17:32;6.30;;;3.00;;
16025;SDS011;8117;52.488;13.460;2022-10-26T09:20:19;2.47;;;2.23;;
16025;SDS011;8117;52.488;13.460;2022-10-26T09:22:56;4.70;;;2.40;;
16025;SDS011;8117;52.488;13.460;2022-10-26T09:25:34;2.97;;;2.27;;
16025;SDS011;8117;52.488;13.460;2022-10-26T09:28:10;2.73;;;2.03;;
16025;SDS011;8117;52.488;13.460;2022-10-26T09:30:42;5.10;;;2.63;;
16025;SDS011;8117;52.488;13.460;2022-10-26T09:33:16;4.00;;;2.90;;
16025;SDS011;8117;52.488;13.460;2022-10-26T09:36:11;4.80;;;2.07;;
16025;SDS011;8117;52.488;13.460;2022-10-26T09:42:06;3.70;;;2.40;;
16025;SDS011;8117;52.488;13.460;2022-10-26T09:48:20;3.43;;;2.27;;
16025;SDS011;8117;52.488;13.460;2022-10-26T09:50:59;3.80;;;2.03;;
16025;SDS011;8117;52.488;13.460;2022-10-26T09:53:31;3.03;;;1.90;;
16025;SDS011;8117;52.488;13.460;2022-10-26T09:56:50;4.50;;;1.83;;
16025;SDS011;8117;52.488;13.460;2022-10-26T09:59:41;4.43;;;3.23;;
16025;SDS011;8117;52.488;13.460;2022-10-26T10:12:25;4.77;;;2.33;;
16025;SDS011;8117;52.488;13.460;2022-10-26T10:15:12;2.73;;;1.90;;
16025;SDS011;8117;52.488;13.460;2022-10-26T10:17:45;2.87;;;2.10;;
16025;SDS011;8117;52.488;13.460;2022-10-26T10:20:25;3.70;;;2.10;;
16025;SDS011;8117;52.488;13.460;2022-10-26T10:23:47;2.10;;;1.90;;
16025;SDS011;8117;52.488;13.460;2022-10-26T10:26:09;2.47;;;1.70;;
16025;SDS011;8117;52.488;13.460;2022-10-26T10:29:00;3.60;;;2.60;;
16025;SDS011;8117;52.488;13.460;2022-10-26T10:31:29;1.90;;;1.40;;
16025;SDS011;8117;52.488;13.460;2022-10-26T10:34:20;1.60;;;1.33;;
16025;SDS011;8117;52.488;13.460;2022-10-26T10:37:53;1.37;;;1.00;;
16025;SDS011;8117;52.488;13.460;2022-10-26T10:39:56;2.90;;;1.00;;
16025;SDS011;8117;52.488;13.460;2022-10-26T10:42:33;1.63;;;1.17;;
16025;SDS011;8117;52.488;13.460;2022-10-26T10:48:12;1.00;;;0.90;;
16025;SDS011;8117;52.488;13.460;2022-10-26T10:50:49;1.63;;;1.10;;
16025;SDS011;8117;52.488;13.460;2022-10-26T10:56:34;1.03;;;0.73;;
16025;SDS011;8117;52.488;13.460;2022-10-26T11:05:26;1.23;;;0.73;;
16025;SDS011;8117;52.488;13.460;2022-10-26T11:08:05;0.60;;;0.60;;
16025;SDS011;8117;52.488;13.460;2022-10-26T11:10:36;2.40;;;0.80;;
16025;SDS011;8117;52.488;13.460;2022-10-26T11:13:28;0.77;;;0.60;;
16025;SDS011;8117;52.488;13.460;2022-10-26T11:16:02;1.87;;;1.00;;
16025;SDS011;8117;52.488;13.460;2022-10-26T11:20:21;2.43;;;1.17;;
16025;SDS011;8117;52.488;13.460;2022-10-26T11:21:40;1.83;;;0.60;;
16025;SDS011;8117;52.488;13.460;2022-10-26T11:24:11;1.30;;;1.20;;
16025;SDS011;8117;52.488;13.460;2022-10-26T11:26:42;3.53;;;1.23;;
16025;SDS011;8117;52.488;13.460;2022-10-26T11:29:39;0.70;;;0.70;;
16025;SDS011;8117;52.488;13.460;2022-10-26T11:52:52;0.70;;;0.63;;
16025;SDS011;8117;52.488;13.460;2022-10-26T11:55:57;1.57;;;1.10;;
16025;SDS011;8117;52.488;13.460;2022-10-26T12:01:48;1.37;;;0.70;;
16025;SDS011;8117;52.488;13.460;2022-10-26T12:07:45;4.50;;;0.93;;
16025;SDS011;8117;52.488;13.460;2022-10-26T12:10:33;2.20;;;1.10;;
16025;SDS011;8117;52.488;13.460;2022-10-26T12:13:26;0.50;;;0.40;;
16025;SDS011;8117;52.488;13.460;2022-10-26T12:16:06;0.40;;;0.37;;
16025;SDS011;8117;52.488;13.460;2022-10-26T12:18:46;1.03;;;0.70;;
16025;SDS011;8117;52.488;13.460;2022-10-26T12:21:20;0.70;;;0.60;;
16025;SDS011;8117;52.488;13.460;2022-10-26T12:23:55;1.70;;;0.73;;
16025;SDS011;8117;52.488;13.460;2022-10-26T12:29:34;1.10;;;1.00;;
16025;SDS011;8117;52.488;13.460;2022-10-26T12:35:34;0.87;;;0.77;;
16025;SDS011;8117;52.488;13.460;2022-10-26T12:41:20;1.87;;;0.60;;
16025;SDS011;8117;52.488;13.460;2022-10-26T12:43:50;0.80;;;0.80;;
16025;SDS011;8117;52.488;13.460;2022-10-26T12:52:37;0.57;;;0.57;;
16025;SDS011;8117;52.488;13.460;2022-10-26T12:58:49;0.73;;;0.73;;
16025;SDS011;8117;52.488;13.460;2022-10-26T13:07:59;0.60;;;0.60;;
16025;SDS011;8117;52.488;13.460;2022-10-26T13:10:29;6.53;;;1.00;;
16025;SDS011;8117;52.488;13.460;2022-10-26T13:12:56;0.53;;;0.50;;
16025;SDS011;8117;52.488;13.460;2022-10-26T13:15:36;0.60;;;0.60;;
16025;SDS011;8117;52.488;13.460;2022-10-26T13:18:06;0.93;;;0.53;;
16025;SDS011;8117;52.488;13.460;2022-10-26T13:20:51;0.33;;;0.33;;
16025;SDS011;8117;52.488;13.460;2022-10-26T13:23:20;0.83;;;0.83;;
16025;SDS011;8117;52.488;13.460;2022-10-26T13:26:03;0.47;;;0.47;;
16025;SDS011;8117;52.488;13.460;2022-10-26T13:28:44;0.60;;;0.60;;
16025;SDS011;8117;52.488;13.460;2022-10-26T13:31:25;0.83;;;0.80;;
16025;SDS011;8117;52.488;13.460;2022-10-26T13:34:20;0.73;;;0.60;;
16025;SDS011;8117;52.488;13.460;2022-10-26T13:37:05;0.60;;;0.50;;
16025;SDS011;8117;52.488;13.460;2022-10-26T13:40:10;0.43;;;0.43;;
16025;SDS011;8117;52.488;13.460;2022-10-26T13:42:54;1.10;;;0.60;;
16025;SDS011;8117;52.488;13.460;2022-10-26T13:45:23;0.57;;;0.50;;
16025;SDS011;8117;52.488;13.460;2022-10-26T13:47:57;0.53;;;0.40;;
16025;SDS011;8117;52.488;13.460;2022-10-26T13:50:32;2.37;;;0.80;;
16025;SDS011;8117;52.488;13.460;2022-10-26T13:55:59;1.00;;;0.60;;
16025;SDS011;8117;52.488;13.460;2022-10-26T13:58:31;1.00;;;0.80;;
16025;SDS011;8117;52.488;13.460;2022-10-26T14:01:11;1.43;;;0.60;;
16025;SDS011;8117;52.488;13.460;2022-10-26T14:03:50;0.43;;;0.43;;
16025;SDS011;8117;52.488;13.460;2022-10-26T14:06:27;1.07;;;0.60;;
16025;SDS011;8117;52.488;13.460;2022-10-26T14:09:20;1.13;;;0.60;;
16025;SDS011;8117;52.488;13.460;2022-10-26T14:11:54;1.43;;;0.87;;
16025;SDS011;8117;52.488;13.460;2022-10-26T14:14:37;1.13;;;1.03;;
16025;SDS011;8117;52.488;13.460;2022-10-26T14:17:06;0.60;;;0.60;;
16025;SDS011;8117;52.488;13.460;2022-10-26T14:19:40;1.03;;;0.70;;
16025;SDS011;8117;52.488;13.460;2022-10-26T14:22:36;0.67;;;0.63;;
16025;SDS011;8117;52.488;13.460;2022-10-26T14:25:23;2.80;;;0.67;;
16025;SDS011;8117;52.488;13.460;2022-10-26T14:28:18;0.77;;;0.50;;
16025;SDS011;8117;52.488;13.460;2022-10-26T14:34:26;1.07;;;0.70;;
16025;SDS011;8117;52.488;13.460;2022-10-26T14:37:49;0.80;;;0.43;;
16025;SDS011;8117;52.488;13.460;2022-10-26T14:42:18;0.60;;;0.50;;
16025;SDS011;8117;52.488;13.460;2022-10-26T14:44:13;0.60;;;0.57;;
16025;SDS011;8117;52.488;13.460;2022-10-26T14:47:40;1.50;;;0.60;;
16025;SDS011;8117;52.488;13.460;2022-10-26T14:50:55;0.60;;;0.50;;
16025;SDS011;8117;52.488;13.460;2022-10-26T14:56:50;0.40;;;0.40;;
16025;SDS011;8117;52.488;13.460;2022-10-26T15:12:34;2.37;;;0.50;;
16025;SDS011;8117;52.488;13.460;2022-10-26T15:19:08;0.90;;;0.80;;
16025;SDS011;8117;52.488;13.460;2022-10-26T15:42:52;2.50;;;1.10;;
16025;SDS011;8117;52.488;13.460;2022-10-26T15:45:44;1.37;;;0.80;;
16025;SDS011;8117;52.488;13.460;2022-10-26T15:48:48;1.43;;;1.27;;
16025;SDS011;8117;52.488;13.460;2022-10-26T15:51:43;0.80;;;0.80;;
16025;SDS011;8117;52.488;13.460;2022-10-26T15:54:38;1.37;;;0.97;;
16025;SDS011;8117;52.488;13.460;2022-10-26T15:57:10;1.03;;;0.90;;
16025;SDS011;8117;52.488;13.460;2022-10-26T15:59:44;1.60;;;1.50;;
16025;SDS011;8117;52.488;13.460;2022-10-26T16:02:31;1.17;;;1.13;;
16025;SDS011;8117;52.488;13.460;2022-10-26T16:05:13;2.90;;;1.87;;
16025;SDS011;8117;52.488;13.460;2022-10-26T18:16:10;3.17;;;1.63;;
16025;SDS011;8117;52.488;13.460;2022-10-26T18:18:55;4.57;;;1.60;;
16025;SDS011;8117;52.488;13.460;2022-10-26T18:21:41;5.60;;;2.47;;
16025;SDS011;8117;52.488;13.460;2022-10-26T18:24:11;2.83;;;2.10;;
16025;SDS011;8117;52.488;13.460;2022-10-26T18:29:49;3.03;;;2.03;;
16025;SDS011;8117;52.488;13.460;2022-10-26T18:32:27;3.03;;;2.27;;
16025;SDS011;8117;52.488;13.460;2022-10-26T18:35:01;2.63;;;1.83;;
16025;SDS011;8117;52.488;13.460;2022-10-26T18:37:48;1.53;;;1.30;;
16025;SDS011;8117;52.488;13.460;2022-10-26T18:40:18;3.83;;;1.73;;
16025;SDS011;8117;52.488;13.460;2022-10-26T18:42:51;2.63;;;1.63;;
16025;SDS011;8117;52.488;13.460;2022-10-26T18:48:25;5.03;;;1.47;;
16025;SDS011;8117;52.488;13.460;2022-10-26T18:51:05;4.17;;;2.00;;
16025;SDS011;8117;52.488;13.460;2022-10-26T18:53:33;2.77;;;1.93;;
16025;SDS011;8117;52.488;13.460;2022-10-26T18:56:18;2.63;;;2.20;;
16025;SDS011;8117;52.488;13.460;2022-10-26T18:58:56;2.67;;;2.00;;
16025;SDS011;8117;52.488;13.460;2022-10-26T19:01:48;2.87;;;2.20;;
16025;SDS011;8117;52.488;13.460;2022-10-26T19:07:23;4.57;;;2.57;;
16025;SDS011;8117;52.488;13.460;2022-10-26T19:09:57;3.70;;;2.50;;
16025;SDS011;8117;52.488;13.460;2022-10-26T19:12:29;2.80;;;1.90;;
16025;SDS011;8117;52.488;13.460;2022-10-26T19:15:19;3.27;;;2.40;;
16025;SDS011;8117;52.488;13.460;2022-10-26T19:18:21;3.00;;;2.50;;
16025;SDS011;8117;52.488;13.460;2022-10-26T19:21:08;4.97;;;2.63;;
16025;SDS011;8117;52.488;13.460;2022-10-26T19:24:01;5.73;;;3.20;;
16025;SDS011;8117;52.488;13.460;2022-10-26T19:26:29;2.83;;;1.97;;
16025;SDS011;8117;52.488;13.460;2022-10-26T19:28:59;4.13;;;3.00;;
16025;SDS011;8117;52.488;13.460;2022-10-26T19:31:49;3.70;;;2.63;;
16025;SDS011;8117;52.488;13.460;2022-10-26T19:34:27;3.47;;;2.33;;
16025;SDS011;8117;52.488;13.460;2022-10-26T19:37:18;5.00;;;3.43;;
16025;SDS011;8117;52.488;13.460;2022-10-26T19:43:13;7.93;;;4.80;;
16025;SDS011;8117;52.488;13.460;2022-10-26T19:45:47;3.97;;;2.80;;
16025;SDS011;8117;52.488;13.460;2022-10-26T19:48:25;8.70;;;4.57;;
16025;SDS011;8117;52.488;13.460;2022-10-26T19:50:57;4.53;;;3.43;;
16025;SDS011;8117;52.488;13.460;2022-10-26T19:53:35;6.23;;;4.60;;
16025;SDS011;8117;52.488;13.460;2022-10-26T19:56:06;6.30;;;3.47;;
16025;SDS011;8117;52.488;13.460;2022-10-26T19:58:50;8.97;;;4.23;;
16025;SDS011;8117;52.488;13.460;2022-10-26T20:01:25;3.37;;;2.90;;
16025;SDS011;8117;52.488;13.460;2022-10-26T20:03:52;4.53;;;3.23;;
16025;SDS011;8117;52.488;13.460;2022-10-26T20:06:19;4.30;;;2.87;;
16025;SDS011;8117;52.488;13.460;2022-10-26T20:08:50;6.23;;;3.80;;
16025;SDS011;8117;52.488;13.460;2022-10-26T20:11:17;7.47;;;4.33;;
16025;SDS011;8117;52.488;13.460;2022-10-26T20:13:46;6.30;;;4.27;;
16025;SDS011;8117;52.488;13.460;2022-10-26T20:16:14;7.27;;;4.27;;
16025;SDS011;8117;52.488;13.460;2022-10-26T20:18:42;7.27;;;4.87;;
16025;SDS011;8117;52.488;13.460;2022-10-26T20:21:11;7.23;;;3.90;;
16025;SDS011;8117;52.488;13.460;2022-10-26T20:23:39;4.93;;;3.23;;
16025;SDS011;8117;52.488;13.460;2022-10-26T20:26:09;5.67;;;3.70;;
16025;SDS011;8117;52.488;13.460;2022-10-26T20:28:38;4.03;;;3.17;;
16025;SDS011;8117;52.488;13.460;2022-10-26T20:31:07;6.53;;;3.60;;
16025;SDS011;8117;52.488;13.460;2022-10-26T20:33:36;4.10;;;3.40;;
16025;SDS011;8117;52.488;13.460;2022-10-26T20:36:06;5.53;;;4.10;;
16025;SDS011;8117;52.488;13.460;2022-10-26T20:38:35;8.77;;;4.63;;
16025;SDS011;8117;52.488;13.460;2022-10-26T20:41:04;6.63;;;4.00;;